createdAt,value
2024-03-02T00:00:14.173Z,99721.31
2024-03-02T00:02:48.048Z,99713.78
2024-03-02T00:05:16.421Z,99718.53
2024-03-02T00:07:43.856Z,99714.13
2024-03-02T00:10:12.579Z,99705.25
2024-03-02T00:12:40.351Z,99710.00
2024-03-02T00:15:31.086Z,99704.44
2024-03-02T00:17:59.953Z,99704.75
2024-03-02T00:20:29.535Z,99715.06
2024-03-02T00:23:06.913Z,99715.06
2024-03-02T00:25:42.411Z,99710.66
2024-03-02T00:28:17.001Z,99717.38
2024-03-02T00:30:46.207Z,99710.13
2024-03-02T00:33:12.827Z,99722.13
2024-03-02T00:35:39.282Z,99724.06
2024-03-02T00:38:07.227Z,99722.41
2024-03-02T00:40:33.897Z,99734.38
2024-03-02T00:43:00.496Z,99735.00
2024-03-02T00:45:27.209Z,99748.94
2024-03-02T00:47:54.321Z,99741.72
2024-03-02T00:50:26.953Z,99741.72
2024-03-02T00:52:57.375Z,99745.66
2024-03-02T00:55:24.033Z,99770.72
2024-03-02T00:57:50.490Z,99767.13
2024-03-02T01:00:18.828Z,99762.66
2024-03-02T01:02:47.449Z,99772.97
2024-03-02T01:05:13.928Z,99793.63
2024-03-02T01:07:40.393Z,99798.84
2024-03-02T01:10:07.169Z,99789.69
2024-03-02T01:12:33.751Z,99792.81
2024-03-02T01:15:00.202Z,99803.13
2024-03-02T01:17:26.604Z,99789.50
2024-03-02T01:19:53.030Z,99801.44
2024-03-02T01:22:25.967Z,99803.75
2024-03-02T01:24:52.788Z,99798.19
2024-03-02T01:27:19.896Z,99800.16
2024-03-02T01:29:46.348Z,99802.13
2024-03-02T01:32:12.802Z,99804.06
2024-03-02T01:34:39.205Z,99801.28
2024-03-02T01:37:05.684Z,99793.25
2024-03-02T01:39:32.142Z,99788.84
2024-03-02T01:41:58.555Z,99788.84
2024-03-02T01:44:24.971Z,99806.34
2024-03-02T01:46:51.921Z,99803.88
2024-03-02T01:49:18.273Z,99803.88
2024-03-02T01:51:44.711Z,99801.09
2024-03-02T01:54:11.129Z,99806.16
2024-03-02T01:56:37.530Z,99820.06
2024-03-02T01:59:04.436Z,99821.22
2024-03-02T02:01:32.153Z,99817.59
2024-03-02T02:03:58.796Z,99825.13
2024-03-02T02:06:25.650Z,99812.03
2024-03-02T02:08:52.095Z,99800.41
2024-03-02T02:11:18.877Z,99795.66
2024-03-02T02:13:45.470Z,99806.28
2024-03-02T02:16:12.096Z,99801.56
2024-03-02T02:18:38.845Z,99793.50
2024-03-02T02:21:05.317Z,99798.25
2024-03-02T02:23:31.711Z,99803.00
2024-03-02T02:25:58.140Z,99803.81
2024-03-02T02:28:24.639Z,99804.16
2024-03-02T02:30:51.131Z,99817.22
2024-03-02T02:33:17.654Z,99814.44
2024-03-02T02:35:44.107Z,99821.16
2024-03-02T02:38:10.613Z,99814.78
2024-03-02T02:40:37.001Z,99830.66
2024-03-02T02:43:03.790Z,99828.69
2024-03-02T02:45:30.265Z,99818.69
2024-03-02T02:47:56.794Z,99817.88
2024-03-02T02:50:23.276Z,99814.25
2024-03-02T02:52:49.769Z,99811.47
2024-03-02T02:55:17.181Z,99816.22
2024-03-02T02:57:45.076Z,99823.75
2024-03-02T03:00:16.881Z,99830.47
2024-03-02T03:02:46.456Z,99842.75
2024-03-02T03:05:15.476Z,99839.09
2024-03-02T03:07:42.891Z,99839.09
2024-03-02T03:10:09.804Z,99835.50
2024-03-02T03:12:36.774Z,99842.22
2024-03-02T03:15:05.532Z,99859.72
2024-03-02T03:17:32.147Z,99854.16
2024-03-02T03:19:58.506Z,99855.81
2024-03-02T03:22:24.996Z,99856.66
2024-03-02T03:24:51.604Z,99858.91
2024-03-02T03:27:18.121Z,99854.97
2024-03-02T03:29:44.605Z,99854.16
2024-03-02T03:32:11.067Z,99847.78
2024-03-02T03:34:37.600Z,99862.03
2024-03-02T03:37:04.292Z,99855.63
2024-03-02T03:39:30.733Z,99853.97
2024-03-02T03:41:57.222Z,99865.09
2024-03-02T03:44:23.816Z,99857.91
2024-03-02T03:46:50.286Z,99857.09
2024-03-02T03:49:16.715Z,99862.66
2024-03-02T03:51:43.759Z,99873.78
2024-03-02T03:54:12.281Z,99877.69
2024-03-02T03:56:38.876Z,99878.53
2024-03-02T03:59:05.803Z,99874.41
2024-03-02T04:01:35.411Z,99867.69
2024-03-02T04:04:04.554Z,99874.41
2024-03-02T04:06:31.159Z,99869.97
2024-03-02T04:08:57.673Z,99879.97
2024-03-02T04:11:24.832Z,99885.81
2024-03-02T04:13:51.240Z,99896.97
2024-03-02T04:16:17.673Z,99895.84
2024-03-02T04:18:44.150Z,99887.16
2024-03-02T04:21:10.600Z,99894.38
2024-03-02T04:23:36.981Z,99893.56
2024-03-02T04:26:03.366Z,99895.22
2024-03-02T04:28:29.749Z,99897.47
2024-03-02T04:30:56.324Z,99904.69
2024-03-02T04:33:22.862Z,99899.13
2024-03-02T04:35:49.367Z,99910.25
2024-03-02T04:38:15.828Z,99910.25
2024-03-02T04:40:42.382Z,99913.03
2024-03-02T04:43:10.536Z,99906.97
2024-03-02T04:45:39.343Z,99917.78
2024-03-02T04:48:06.219Z,99914.16
2024-03-02T04:50:32.623Z,99906.63
2024-03-02T04:52:58.985Z,99911.38
2024-03-02T04:55:40.275Z,99922.50
2024-03-02T04:58:07.546Z,99928.91
2024-03-02T05:00:34.617Z,99926.13
2024-03-02T05:03:01.186Z,99926.94
2024-03-02T05:05:27.746Z,99932.50
2024-03-02T05:07:54.208Z,99924.97
2024-03-02T05:10:20.764Z,99928.59
2024-03-02T05:12:47.200Z,99924.16
2024-03-02T05:15:15.362Z,99935.00
2024-03-02T05:17:46.380Z,99931.06
2024-03-02T05:20:13.164Z,99933.50
2024-03-02T05:22:40.766Z,99928.78
2024-03-02T05:25:08.256Z,99933.22
2024-03-02T05:27:34.871Z,99944.03
2024-03-02T05:30:01.913Z,99939.59
2024-03-02T05:32:28.340Z,99934.56
2024-03-02T05:34:56.077Z,99933.41
2024-03-02T05:37:22.649Z,99942.56
2024-03-02T05:39:49.140Z,99937.84
2024-03-02T05:42:17.784Z,99938.97
2024-03-02T05:44:44.305Z,99938.34
2024-03-02T05:47:10.777Z,99941.13
2024-03-02T05:49:37.272Z,99934.41
2024-03-02T05:52:04.271Z,99942.78
2024-03-02T05:54:30.824Z,99942.44
2024-03-02T05:56:57.259Z,99946.06
2024-03-02T05:59:23.635Z,99933.81
2024-03-02T06:01:53.156Z,99937.72
2024-03-02T06:04:19.883Z,99937.41
2024-03-02T06:06:46.438Z,99951.00
2024-03-02T06:09:13.769Z,99950.16
2024-03-02T06:11:41.894Z,99951.00
2024-03-02T06:14:09.895Z,99951.84
2024-03-02T06:16:36.490Z,99957.41
2024-03-02T06:19:03.273Z,99964.59
2024-03-02T06:21:30.872Z,99959.03
2024-03-02T06:23:57.847Z,99961.50
2024-03-02T06:26:26.104Z,99967.06
2024-03-02T06:28:53.180Z,99975.13
2024-03-02T06:31:19.802Z,99976.22
2024-03-02T06:33:46.312Z,99978.72
2024-03-02T06:36:13.139Z,99981.50
2024-03-02T06:38:43.530Z,99991.47
2024-03-02T06:41:10.352Z,99995.09
2024-03-02T06:43:36.887Z,99997.88
2024-03-02T06:46:03.696Z,99997.56
2024-03-02T06:50:58.483Z,99999.22
2024-03-02T06:53:24.908Z,100000.84
2024-03-02T06:55:51.454Z,100002.53
2024-03-02T06:58:17.902Z,100008.09
2024-03-02T07:00:45.164Z,100003.34
2024-03-02T07:03:11.677Z,100000.22
2024-03-02T07:05:38.114Z,100005.78
2024-03-02T07:08:06.272Z,100005.78
2024-03-02T07:10:32.772Z,100013.00
2024-03-02T07:12:59.223Z,100009.09
2024-03-02T07:15:28.438Z,100017.13
2024-03-02T07:17:54.941Z,100010.72
2024-03-02T07:20:21.671Z,100009.59
2024-03-02T07:22:48.193Z,99999.28
2024-03-02T07:27:45.023Z,100011.75
2024-03-02T07:30:15.151Z,100012.56
2024-03-02T07:32:42.881Z,100016.16
2024-03-02T07:35:09.507Z,100019.81
2024-03-02T07:37:35.990Z,100016.69
2024-03-02T07:40:02.620Z,100022.25
2024-03-02T07:42:29.127Z,100025.88
2024-03-02T07:44:55.619Z,100023.91
2024-03-02T07:47:22.057Z,100028.34
2024-03-02T07:49:48.484Z,100032.78
2024-03-02T07:52:14.927Z,100039.97
2024-03-02T07:54:41.417Z,100036.06
2024-03-02T07:57:07.904Z,100042.47
2024-03-02T07:59:34.405Z,100044.09
2024-03-02T08:02:01.792Z,100043.78
2024-03-02T08:04:28.320Z,100045.44
2024-03-02T08:06:55.959Z,100046.25
2024-03-02T08:09:22.554Z,100053.47
2024-03-02T08:11:49.107Z,100055.94
2024-03-02T08:14:15.594Z,100052.31
2024-03-02T08:16:42.523Z,100054.00
2024-03-02T08:19:10.135Z,100060.38
2024-03-02T08:21:36.915Z,100058.09
2024-03-02T08:24:03.974Z,100060.88
2024-03-02T08:26:32.580Z,100065.31
2024-03-02T08:29:00.163Z,100060.81
2024-03-02T08:31:26.635Z,100066.75
2024-03-02T08:33:53.212Z,100056.63
2024-03-02T08:36:20.775Z,100057.97
2024-03-02T08:38:47.318Z,100066.13
2024-03-02T08:41:14.822Z,100074.28
2024-03-02T08:43:43.253Z,100063.44
2024-03-02T08:46:09.852Z,100066.25
2024-03-02T08:48:36.337Z,100069.84
2024-03-02T08:51:05.649Z,100070.38
2024-03-02T08:53:32.094Z,100069.75
2024-03-02T08:55:59.709Z,100072.72
2024-03-02T08:58:27.461Z,100074.88
2024-03-02T09:00:54.197Z,100075.88
2024-03-02T09:03:20.851Z,100079.69
2024-03-02T09:05:47.233Z,100081.50
2024-03-02T09:08:13.658Z,100064.97
2024-03-02T09:10:41.030Z,100070.75
2024-03-02T09:13:07.671Z,100071.25
2024-03-02T09:15:37.027Z,100059.16
2024-03-02T09:18:04.295Z,100068.84
2024-03-02T09:20:30.730Z,100070.69
2024-03-02T09:22:57.692Z,100072.13
2024-03-02T09:25:24.161Z,100071.31
2024-03-02T09:27:50.583Z,100066.75
2024-03-02T09:30:17.002Z,100064.63
2024-03-02T09:32:44.404Z,100072.28
2024-03-02T09:35:11.434Z,100075.50
2024-03-02T09:37:37.815Z,100073.97
2024-03-02T09:40:04.913Z,100071.31
2024-03-02T09:42:31.704Z,100076.38
2024-03-02T09:44:58.404Z,100073.09
2024-03-02T09:47:25.043Z,100079.31
2024-03-02T09:49:51.839Z,100080.63
2024-03-02T09:52:18.448Z,100077.53
2024-03-02T09:54:44.901Z,100079.34
2024-03-02T09:57:11.427Z,100080.25
2024-03-02T09:59:37.782Z,100082.59
2024-03-02T10:02:08.101Z,100091.63
2024-03-02T10:04:36.778Z,100089.03
2024-03-02T10:07:19.196Z,100086.97
2024-03-02T10:09:47.483Z,100078.16
2024-03-02T10:12:15.897Z,100085.06
2024-03-02T10:14:42.661Z,100092.47
2024-03-02T10:17:11.099Z,100089.88
2024-03-02T10:19:38.826Z,100074.78
2024-03-02T10:22:07.156Z,100082.16
2024-03-02T10:24:37.949Z,100074.84
2024-03-02T10:27:17.766Z,100065.00
2024-03-02T10:29:47.461Z,100078.84
2024-03-02T10:32:14.247Z,100076.22
2024-03-02T10:34:41.616Z,100070.81
2024-03-02T10:37:08.679Z,100073.28
2024-03-02T10:39:40.860Z,100074.63
2024-03-02T10:42:08.223Z,100063.63
2024-03-02T10:44:36.014Z,100068.25
2024-03-02T10:47:05.047Z,100067.94
2024-03-02T10:49:32.918Z,100067.59
2024-03-02T10:52:00.047Z,100068.94
2024-03-02T10:54:36.900Z,100057.19
2024-03-02T10:57:06.404Z,100055.00
2024-03-02T10:59:37.836Z,100054.63
2024-03-02T11:02:06.381Z,100053.28
2024-03-02T11:04:34.188Z,100046.22
2024-03-02T11:07:06.290Z,100038.97
2024-03-02T11:09:36.228Z,100041.94
2024-03-02T11:12:24.038Z,100034.13
2024-03-02T11:14:53.123Z,100039.81
2024-03-02T11:17:20.250Z,100030.66
2024-03-02T11:19:48.464Z,100041.50
2024-03-02T11:22:16.624Z,100037.13
2024-03-02T11:24:53.937Z,100035.00
2024-03-02T11:27:49.931Z,100035.03
2024-03-02T11:30:35.647Z,100035.69
2024-03-02T11:33:12.123Z,100027.50
2024-03-02T11:35:52.431Z,100049.69
2024-03-02T11:38:20.068Z,100040.16
2024-03-02T11:40:46.506Z,100047.88
2024-03-02T11:43:13.322Z,100047.53
2024-03-02T11:45:45.264Z,100044.75
2024-03-02T11:48:15.325Z,100031.78
2024-03-02T11:50:50.600Z,100042.59
2024-03-02T11:53:18.117Z,100035.38
2024-03-02T11:55:47.596Z,100029.47
2024-03-02T11:58:14.622Z,100023.56
2024-03-02T12:00:41.193Z,100026.69
2024-03-02T12:03:09.687Z,100023.56
2024-03-02T12:05:37.170Z,100030.78
2024-03-02T12:08:06.077Z,100023.53
2024-03-02T12:10:33.567Z,100008.41
2024-03-02T12:13:08.482Z,100015.81
2024-03-02T12:15:38.069Z,100004.28
2024-03-02T12:18:05.540Z,100014.59
2024-03-02T12:20:33.304Z,100003.63
2024-03-02T12:23:01.785Z,100017.38
2024-03-02T12:25:28.719Z,100003.25
2024-03-02T12:27:56.968Z,100005.06
2024-03-02T12:30:24.437Z,100010.13
2024-03-02T12:32:51.382Z,100000.13
2024-03-02T12:35:19.721Z,100004.06
2024-03-02T12:37:50.689Z,99996.50
2024-03-02T12:40:19.454Z,99994.53
2024-03-02T12:42:46.869Z,100004.53
2024-03-02T12:45:14.504Z,99998.03
2024-03-02T12:47:45.532Z,99999.66
2024-03-02T12:50:12.078Z,99991.00
2024-03-02T12:52:38.684Z,99996.91
2024-03-02T12:55:06.687Z,100003.19
2024-03-02T12:57:35.278Z,99984.63
2024-03-02T13:00:15.490Z,99987.25
2024-03-02T13:02:43.147Z,99974.44
2024-03-02T13:05:12.851Z,99972.31
2024-03-02T13:07:39.752Z,99981.03
2024-03-02T13:10:08.847Z,99983.81
2024-03-02T13:12:36.855Z,99978.25
2024-03-02T13:15:04.876Z,99964.97
2024-03-02T13:17:36.958Z,99979.44
2024-03-02T13:20:11.914Z,99963.28
2024-03-02T13:22:38.630Z,99965.47
2024-03-02T13:25:05.973Z,99962.84
2024-03-02T13:27:33.433Z,99960.69
2024-03-02T13:30:00.136Z,99967.59
2024-03-02T13:32:27.114Z,99962.50
2024-03-02T13:34:53.618Z,99980.91
2024-03-02T13:37:23.176Z,99967.44
2024-03-02T13:39:50.091Z,99971.53
2024-03-02T13:42:17.497Z,99966.28
2024-03-02T13:44:49.219Z,99956.75
2024-03-02T13:47:15.872Z,99968.41
2024-03-02T13:49:46.796Z,99956.91
2024-03-02T13:52:17.621Z,99954.25
2024-03-02T13:54:46.073Z,99945.41
2024-03-02T13:57:13.263Z,99948.53
2024-03-02T13:59:40.135Z,99956.75
2024-03-02T14:02:07.398Z,99952.44
2024-03-02T14:04:34.988Z,99949.66
2024-03-02T14:07:02.855Z,99948.53
2024-03-02T14:09:29.823Z,99948.84
2024-03-02T14:11:57.030Z,99951.31
2024-03-02T14:14:24.163Z,99944.22
2024-03-02T14:16:50.878Z,99941.44
2024-03-02T14:19:17.498Z,99939.44
2024-03-02T14:21:44.102Z,99939.97
2024-03-02T14:24:10.755Z,99937.97
2024-03-02T14:26:37.862Z,99933.88
2024-03-02T14:29:04.912Z,99928.78
2024-03-02T14:31:35.095Z,99925.16
2024-03-02T14:34:01.736Z,99926.00
2024-03-02T14:36:29.449Z,99918.41
2024-03-02T14:38:56.521Z,99918.09
2024-03-02T14:41:25.010Z,99916.44
2024-03-02T14:43:51.815Z,99913.19
2024-03-02T14:46:18.769Z,99921.72
2024-03-02T14:48:47.101Z,99918.44
2024-03-02T14:51:14.582Z,99907.94
2024-03-02T14:53:41.370Z,99897.94
2024-03-02T14:56:08.105Z,99899.06
2024-03-02T14:58:36.218Z,99890.22
2024-03-02T15:01:03.064Z,99892.50
2024-03-02T15:03:30.190Z,99888.88
2024-03-02T15:05:57.843Z,99880.16
2024-03-02T15:08:24.394Z,99870.81
2024-03-02T15:10:50.960Z,99876.09
2024-03-02T15:13:17.630Z,99870.81
2024-03-02T15:15:44.203Z,99875.25
2024-03-02T15:18:10.713Z,99873.13
2024-03-02T15:20:37.271Z,99879.53
2024-03-02T15:23:04.307Z,99886.28
2024-03-02T15:25:30.807Z,99891.22
2024-03-02T15:27:57.468Z,99886.28
2024-03-02T15:30:24.078Z,99887.09
2024-03-02T15:32:50.636Z,99887.91
2024-03-02T15:35:17.032Z,99888.75
2024-03-02T15:37:43.449Z,99883.16
2024-03-02T15:40:10.575Z,99884.81
2024-03-02T15:42:37.293Z,99879.53
2024-03-02T15:45:04.121Z,99890.69
2024-03-02T15:47:30.602Z,99884.66
2024-03-02T15:49:57.130Z,99889.41
2024-03-02T15:52:23.778Z,99894.19
2024-03-02T15:54:53.082Z,99885.31
2024-03-02T15:57:20.713Z,99886.47
2024-03-02T15:59:47.186Z,99888.09
2024-03-02T16:02:15.383Z,99895.97
2024-03-02T16:04:41.804Z,99894.03
2024-03-02T16:07:10.766Z,99889.88
2024-03-02T16:09:37.300Z,99893.50
2024-03-02T16:12:04.220Z,99894.66
2024-03-02T16:14:30.785Z,99887.75
2024-03-02T16:16:57.173Z,99887.25
2024-03-02T16:19:29.893Z,99881.34
2024-03-02T16:21:59.744Z,99884.44
2024-03-02T16:24:26.380Z,99888.41
2024-03-02T16:26:52.915Z,99887.41
2024-03-02T16:29:19.375Z,99881.03
2024-03-02T16:31:45.853Z,99878.22
2024-03-02T16:34:12.883Z,99868.53
2024-03-02T16:36:41.360Z,99866.56
2024-03-02T16:39:09.596Z,99867.72
2024-03-02T16:41:36.145Z,99850.97
2024-03-02T16:44:07.055Z,99856.91
2024-03-02T16:46:34.104Z,99856.38
2024-03-02T16:49:00.653Z,99864.25
2024-03-02T16:51:27.301Z,99864.25
2024-03-02T16:53:53.740Z,99866.56
2024-03-02T16:56:20.183Z,99870.38
2024-03-02T16:58:46.644Z,99869.53
2024-03-02T17:01:13.107Z,99867.88
2024-03-02T17:03:41.644Z,99874.63
2024-03-02T17:06:08.084Z,99872.16
2024-03-02T17:08:35.503Z,99870.84
2024-03-02T17:11:01.935Z,99875.63
2024-03-02T17:13:28.400Z,99868.72
2024-03-02T17:15:54.878Z,99873.47
2024-03-02T17:18:21.349Z,99863.78
2024-03-02T17:20:47.775Z,99869.38
2024-03-02T17:23:14.169Z,99870.53
2024-03-02T17:25:40.735Z,99867.22
2024-03-02T17:28:21.150Z,99870.38
2024-03-02T17:30:47.617Z,99870.66
2024-03-02T17:33:14.290Z,99873.47
2024-03-02T17:35:40.752Z,99865.44
2024-03-02T17:38:07.402Z,99872.97
2024-03-02T17:40:33.808Z,99875.78
2024-03-02T17:43:00.217Z,99874.13
2024-03-02T17:45:26.649Z,99884.16
2024-03-02T17:47:53.030Z,99879.69
2024-03-02T17:50:19.507Z,99885.28
2024-03-02T17:52:45.942Z,99888.41
2024-03-02T17:55:12.408Z,99894.81
2024-03-02T17:57:38.866Z,99897.59
2024-03-02T18:00:06.295Z,99894.63
2024-03-02T18:02:34.524Z,99891.03
2024-03-02T18:05:00.935Z,99901.84
2024-03-02T18:07:27.368Z,99897.41
2024-03-02T18:09:53.876Z,99897.41
2024-03-02T18:12:20.534Z,99898.56
2024-03-02T18:14:46.943Z,99897.75
2024-03-02T18:17:13.598Z,99898.56
2024-03-02T18:19:40.187Z,99897.41
2024-03-02T18:22:06.828Z,99898.56
2024-03-02T18:24:36.509Z,99898.56
2024-03-02T18:27:04.509Z,99886.59
2024-03-02T18:29:30.887Z,99891.34
2024-03-02T18:31:58.789Z,99892.19
2024-03-02T18:34:25.288Z,99901.69
2024-03-02T18:36:52.056Z,99897.25
2024-03-02T18:39:19.049Z,99897.59
2024-03-02T18:41:45.686Z,99905.13
2024-03-02T18:44:12.155Z,99895.94
2024-03-02T18:46:38.637Z,99909.88
2024-03-02T18:49:05.202Z,99904.63
2024-03-02T18:51:31.598Z,99903.81
2024-03-02T18:53:58.048Z,99901.97
2024-03-02T18:56:24.549Z,99898.88
2024-03-02T18:58:51.037Z,99894.78
2024-03-02T19:01:17.640Z,99899.88
2024-03-02T19:03:44.228Z,99901.00
2024-03-02T19:06:17.116Z,99890.34
2024-03-02T19:08:43.722Z,99905.44
2024-03-02T19:11:16.986Z,99895.09
2024-03-02T19:13:44.453Z,99898.72
2024-03-02T19:16:12.894Z,99895.41
2024-03-02T19:18:40.943Z,99891.81
2024-03-02T19:21:07.659Z,99890.19
2024-03-02T19:23:40.260Z,99890.50
2024-03-02T19:26:12.525Z,99891.34
2024-03-02T19:28:38.932Z,99884.09
2024-03-02T19:31:05.351Z,99878.03
2024-03-02T19:33:32.060Z,99885.59
2024-03-02T19:35:58.458Z,99881.13
2024-03-02T19:38:26.266Z,99886.22
2024-03-02T19:40:52.889Z,99877.88
2024-03-02T19:43:19.537Z,99880.16
2024-03-02T19:45:46.090Z,99883.28
2024-03-02T19:48:12.747Z,99880.47
2024-03-02T19:50:40.935Z,99878.78
2024-03-02T19:53:07.339Z,99877.16
2024-03-02T19:55:33.921Z,99877.16
2024-03-02T19:58:00.351Z,99877.50
2024-03-02T20:00:26.859Z,99873.03
2024-03-02T20:02:53.403Z,99877.81
2024-03-02T20:05:19.876Z,99877.31
2024-03-02T20:07:46.705Z,99872.88
2024-03-02T20:10:14.126Z,99871.22
2024-03-02T20:12:40.846Z,99863.19
2024-03-02T20:15:07.918Z,99860.72
2024-03-02T20:17:34.413Z,99859.09
2024-03-02T20:20:00.823Z,99851.88
2024-03-02T20:22:27.245Z,99854.97
2024-03-02T20:24:53.766Z,99858.91
2024-03-02T20:27:21.299Z,99846.94
2024-03-02T20:29:48.612Z,99839.75
2024-03-02T20:32:15.095Z,99844.47
2024-03-02T20:34:41.493Z,99839.75
2024-03-02T20:37:07.994Z,99845.63
2024-03-02T20:39:34.505Z,99837.59
2024-03-02T20:42:01.040Z,99845.16
2024-03-02T20:44:27.479Z,99847.09
2024-03-02T20:46:54.777Z,99841.03
2024-03-02T20:49:21.282Z,99839.41
2024-03-02T20:51:47.927Z,99842.50
2024-03-02T20:54:14.374Z,99843.31
2024-03-02T20:56:43.490Z,99846.44
2024-03-02T20:59:10.011Z,99846.44
2024-03-02T21:01:36.899Z,99849.53
2024-03-02T21:04:03.947Z,99846.75
2024-03-02T21:06:30.620Z,99847.91
2024-03-02T21:08:57.074Z,99846.25
2024-03-02T21:11:23.564Z,99851.84
2024-03-02T21:13:50.490Z,99849.88
2024-03-02T21:16:17.826Z,99847.22
2024-03-02T21:18:44.430Z,99848.34
2024-03-02T21:21:13.925Z,99852.31
2024-03-02T21:23:40.655Z,99854.56
2024-03-02T21:26:07.172Z,99852.13
2024-03-02T21:28:33.626Z,99846.38
2024-03-02T21:31:00.078Z,99849.66
2024-03-02T21:33:29.726Z,99853.59
2024-03-02T21:35:56.210Z,99861.47
2024-03-02T21:38:22.840Z,99853.41
2024-03-02T21:40:50.044Z,99862.09
2024-03-02T21:43:17.167Z,99860.13
2024-03-02T21:45:43.812Z,99865.19
2024-03-02T21:48:10.296Z,99864.38
2024-03-02T21:50:36.840Z,99866.69
2024-03-02T21:53:04.698Z,99865.00
2024-03-02T21:55:31.136Z,99868.13
2024-03-02T21:57:57.632Z,99862.56
2024-03-02T22:00:25.130Z,99859.25
2024-03-02T22:02:51.533Z,99871.88
2024-03-02T22:05:18.102Z,99871.88
2024-03-02T22:07:44.529Z,99868.59
2024-03-02T22:10:11.045Z,99878.09
2024-03-02T22:12:38.788Z,99876.94
2024-03-02T22:15:05.589Z,99878.41
2024-03-02T22:17:32.350Z,99880.38
2024-03-02T22:19:58.868Z,99879.88
2024-03-02T22:22:25.327Z,99880.19
2024-03-02T22:24:51.853Z,99880.19
2024-03-02T22:27:18.314Z,99884.94
2024-03-02T22:29:45.036Z,99882.78
2024-03-02T22:32:11.449Z,99874.44
2024-03-02T22:34:37.909Z,99877.22
2024-03-02T22:37:04.670Z,99866.41
2024-03-02T22:39:31.149Z,99875.88
2024-03-02T22:41:57.631Z,99870.97
2024-03-02T22:44:24.073Z,99883.75
2024-03-02T22:46:50.502Z,99873.88
2024-03-02T22:49:17.517Z,99874.06
2024-03-02T22:51:43.984Z,99881.59
2024-03-02T22:54:10.468Z,99876.38
2024-03-02T22:56:36.888Z,99881.94
2024-03-02T22:59:03.550Z,99894.19
2024-03-02T23:01:30.097Z,99893.38
2024-03-02T23:03:56.610Z,99894.53
2024-03-02T23:06:24.070Z,99898.47
2024-03-02T23:08:50.532Z,99888.75
2024-03-02T23:11:17.046Z,99891.53
2024-03-02T23:13:43.526Z,99891.00
2024-03-02T23:16:09.977Z,99884.97
2024-03-02T23:18:36.522Z,99879.88
2024-03-02T23:21:03.075Z,99878.25
2024-03-02T23:23:29.481Z,99881.34
2024-03-02T23:25:55.934Z,99875.78
2024-03-02T23:28:22.468Z,99885.25
2024-03-02T23:30:49.003Z,99875.28
2024-03-02T23:33:15.690Z,99867.25
2024-03-02T23:35:42.813Z,99864.47
2024-03-02T23:38:09.462Z,99867.56
2024-03-02T23:40:54.259Z,99866.72
2024-03-02T23:43:20.799Z,99868.69
2024-03-02T23:45:47.287Z,99864.28
2024-03-02T23:48:13.824Z,99867.38
2024-03-02T23:50:40.267Z,99864.59
2024-03-02T23:53:06.710Z,99868.50
2024-03-02T23:55:46.322Z,99871.31
2024-03-02T23:58:18.329Z,99878.00
